WXM80 ListenWXM80 Stop

You find our weather info also at:

UK Metoffice

WeatherCloud

Weather Underground

Northeastern Weather Network

AWEKAS

Citizen Weather Observer Program (CWOP)

HAMweather, WeatherForYou, PWS Weather


Weather Underground History page Text

Daily Summary for July 27, 2017 Units:  English    Metric   Both
« Previous Day
Next Day »
Daily Weekly Monthly Yearly Custom
  High: Low: Average:
Temperature: 79.1 °F 59.8 °F 70.2 °F
Dew Point: 70.2 °F 56.8 °F 65.4 °F
Humidity: 96 % 69 % 85 %
Wind Speed: 3.6 mph 0.0 mph 0.6 mph
Wind Gust: 7.0 mph - -
Wind:- - South
Pressure: 30.08 in 29.82 in -
Precipitation: 0.00 in    
Historical Graphs
 
 
Tabular Data for July 27, 2017
Time Temperature Dew Point Pressure Wind Wind Speed Wind Gust Humidity Rainfall Rate (Hourly)
00:46 63.3 °F 58.7 °F 30.08 in Calm   1.2 mph 85 % 0.00 in
00:51 63.3 °F 59.0 °F 30.08 in WSW 0.1 mph 1.2 mph 86 % 0.00 in
00:56 63.2 °F 58.9 °F 30.08 in Calm     86 % 0.00 in
01:01 63.2 °F 58.9 °F 30.08 in Calm     86 % 0.00 in
01:06 63.2 °F 58.9 °F 30.08 in Calm     86 % 0.00 in
01:11 63.1 °F 58.8 °F 30.07 in Calm     86 % 0.00 in
01:16 63.1 °F 58.8 °F 30.07 in Calm     86 % 0.00 in
01:21 63.0 °F 58.7 °F 30.07 in Calm     86 % 0.00 in
01:26 62.9 °F 58.6 °F 30.07 in Calm     86 % 0.00 in
01:28 62.9 °F 58.6 °F 30.07 in Calm     86 % 0.00 in
01:33 62.8 °F 58.5 °F 30.06 in Calm     86 % 0.00 in
01:38 62.7 °F 58.5 °F 30.07 in Calm     86 % 0.00 in
01:43 62.5 °F 58.3 °F 30.07 in Calm     86 % 0.00 in
01:48 62.4 °F 58.5 °F 30.07 in Calm   1.0 mph 87 % 0.00 in
01:53 62.3 °F 58.4 °F 30.07 in Calm     87 % 0.00 in
01:58 62.1 °F 58.2 °F 30.07 in Calm     87 % 0.00 in
02:03 62.0 °F 58.1 °F 30.06 in Calm     87 % 0.00 in
02:08 61.9 °F 58.3 °F 30.06 in Calm     88 % 0.00 in
02:13 61.8 °F 58.2 °F 30.06 in Calm     88 % 0.00 in
02:18 61.7 °F 58.1 °F 30.06 in Calm     88 % 0.00 in
02:23 61.5 °F 57.9 °F 30.05 in Calm     88 % 0.00 in
02:28 61.4 °F 58.1 °F 30.05 in Calm     89 % 0.00 in
02:34 61.3 °F 58.0 °F 30.05 in Calm     89 % 0.00 in
02:39 61.2 °F 57.9 °F 30.05 in Calm     89 % 0.00 in
02:43 61.1 °F 57.8 °F 30.04 in Calm     89 % 0.00 in
02:49 60.9 °F 57.6 °F 30.04 in Calm     89 % 0.00 in
02:54 60.8 °F 57.5 °F 30.04 in Calm     89 % 0.00 in
02:59 60.7 °F 57.4 °F 30.03 in Calm     89 % 0.00 in
03:04 60.7 °F 57.4 °F 30.03 in Calm     89 % 0.00 in
03:09 60.5 °F 57.2 °F 30.03 in Calm     89 % 0.00 in
03:14 60.5 °F 57.2 °F 30.03 in Calm     89 % 0.00 in
03:19 60.4 °F 57.1 °F 30.03 in Calm     89 % 0.00 in
03:24 60.3 °F 57.0 °F 30.02 in Calm     89 % 0.00 in
03:29 60.2 °F 56.9 °F 30.03 in Calm     89 % 0.00 in
03:34 60.1 °F 56.8 °F 30.03 in Calm     89 % 0.00 in
03:39 60.0 °F 57.1 °F 30.02 in Calm     90 % 0.00 in
03:44 60.0 °F 57.1 °F 30.02 in Calm     90 % 0.00 in
03:49 59.9 °F 57.0 °F 30.03 in Calm     90 % 0.00 in
03:59 59.9 °F 57.3 °F 30.03 in Calm     91 % 0.00 in
04:04 59.9 °F 57.3 °F 30.02 in Calm     91 % 0.00 in
04:09 59.9 °F 57.3 °F 30.02 in Calm     91 % 0.00 in
04:14 59.8 °F 57.2 °F 30.02 in Calm     91 % 0.00 in
04:19 59.8 °F 57.2 °F 30.03 in Calm     91 % 0.00 in
04:24 59.8 °F 57.2 °F 30.02 in Calm     91 % 0.00 in
04:29 59.8 °F 57.2 °F 30.02 in Calm     91 % 0.00 in
04:34 59.8 °F 57.5 °F 30.02 in Calm     92 % 0.00 in
04:39 59.8 °F 57.5 °F 30.01 in Calm     92 % 0.00 in
04:44 59.8 °F 57.8 °F 30.01 in Calm     93 % 0.00 in
04:49 60.0 °F 58.0 °F 30.01 in Calm     93 % 0.00 in
04:55 60.0 °F 58.0 °F 30.01 in WSW 0.2 mph   93 % 0.00 in
05:00 60.1 °F 58.4 °F 30.01 in Calm   1.2 mph 94 % 0.00 in
05:05 60.2 °F 58.5 °F 30.01 in Calm     94 % 0.00 in
05:10 60.3 °F 58.6 °F 30.00 in WSW 0.1 mph 2.3 mph 94 % 0.00 in
05:15 60.4 °F 58.7 °F 30.01 in Calm     94 % 0.00 in
05:18 60.4 °F 58.7 °F 30.01 in Calm     94 % 0.00 in
05:23 60.4 °F 58.7 °F 30.01 in Calm     94 % 0.00 in
05:28 60.5 °F 58.8 °F 30.01 in Calm     94 % 0.00 in
05:33 60.5 °F 58.8 °F 30.01 in Calm     94 % 0.00 in
05:38 60.5 °F 58.8 °F 30.01 in Calm     94 % 0.00 in
05:43 60.5 °F 58.8 °F 30.02 in Calm     94 % 0.00 in
05:48 60.5 °F 58.8 °F 30.02 in Calm   1.2 mph 94 % 0.00 in
05:53 60.5 °F 58.8 °F 30.02 in Calm   1.2 mph 94 % 0.00 in
05:58 60.5 °F 58.8 °F 30.02 in Calm     94 % 0.00 in
06:03 60.5 °F 58.8 °F 30.02 in South 0.6 mph 1.0 mph 94 % 0.00 in
06:08 60.5 °F 58.8 °F 30.02 in Calm     94 % 0.00 in
06:09 60.6 °F 58.9 °F 30.02 in South 0.1 mph 2.0 mph 94 % 0.00 in
06:14 60.7 °F 59.3 °F 30.02 in South 0.1 mph 1.2 mph 95 % 0.00 in
06:19 60.7 °F 59.3 °F 30.02 in WSW 0.3 mph   95 % 0.00 in
06:24 60.8 °F 59.4 °F 30.01 in WSW 0.1 mph 1.2 mph 95 % 0.00 in
06:29 60.9 °F 59.5 °F 30.01 in Calm   1.2 mph 95 % 0.00 in
06:34 61.1 °F 59.7 °F 30.01 in Calm   1.2 mph 95 % 0.00 in
06:39 61.2 °F 59.8 °F 30.02 in Calm     95 % 0.00 in
06:44 61.4 °F 60.2 °F 30.01 in NW 0.1 mph 2.3 mph 96 % 0.00 in
06:49 61.6 °F 60.4 °F 30.01 in WSW 0.1 mph 3.0 mph 96 % 0.00 in
06:54 61.9 °F 60.7 °F 30.01 in Calm   1.2 mph 96 % 0.00 in
06:59 62.1 °F 60.9 °F 30.01 in SW 0.2 mph 2.3 mph 96 % 0.00 in
07:04 62.3 °F 61.1 °F 30.01 in SW 0.7 mph 3.0 mph 96 % 0.00 in
07:10 62.5 °F 61.3 °F 30.01 in Calm     96 % 0.00 in
07:15 62.6 °F 61.4 °F 30.01 in SW 0.4 mph 2.3 mph 96 % 0.00 in
07:20 62.8 °F 61.6 °F 30.01 in WSW 0.4 mph 3.5 mph 96 % 0.00 in
07:25 63.0 °F 61.8 °F 30.01 in WSW 0.4 mph 2.0 mph 96 % 0.00 in
07:30 63.1 °F 61.9 °F 30.01 in SSE 1.0 mph 3.0 mph 96 % 0.00 in
07:35 63.3 °F 62.1 °F 30.02 in South 0.1 mph 1.2 mph 96 % 0.00 in
07:40 63.5 °F 62.3 °F 30.01 in WSW 0.7 mph 3.5 mph 96 % 0.00 in
07:45 63.7 °F 62.5 °F 30.02 in WSW 1.0 mph 3.0 mph 96 % 0.00 in
07:50 63.9 °F 62.7 °F 30.02 in WSW 2.0 mph 4.0 mph 96 % 0.00 in
07:55 64.3 °F 63.1 °F 30.01 in SSW 1.5 mph 6.0 mph 96 % 0.00 in
08:00 64.5 °F 63.3 °F 30.02 in WSW 3.6 mph 6.0 mph 96 % 0.00 in
08:05 64.9 °F 63.4 °F 30.01 in WSW 1.5 mph 3.5 mph 95 % 0.00 in
08:10 65.2 °F 63.7 °F 30.01 in WSW 1.1 mph 2.3 mph 95 % 0.00 in
08:15 65.6 °F 63.8 °F 30.01 in WSW 1.4 mph 2.3 mph 94 % 0.00 in
08:20 65.9 °F 64.1 °F 30.01 in SW 1.7 mph 4.6 mph 94 % 0.00 in
08:25 66.4 °F 64.0 °F 30.01 in SW 0.1 mph 2.3 mph 92 % 0.00 in
08:30 66.8 °F 64.1 °F 30.01 in WSW 0.3 mph 3.5 mph 91 % 0.00 in
08:35 67.1 °F 64.4 °F 30.00 in SSW 0.3 mph 1.2 mph 91 % 0.00 in
08:40 67.5 °F 64.1 °F 30.00 in SW 0.1 mph 2.0 mph 89 % 0.00 in
08:45 67.9 °F 64.2 °F 30.00 in WSW 2.4 mph 3.0 mph 88 % 0.00 in
08:50 68.3 °F 64.3 °F 30.00 in WSW 2.7 mph 4.0 mph 87 % 0.00 in
08:55 68.7 °F 64.3 °F 30.00 in WSW 0.3 mph 3.5 mph 86 % 0.00 in
09:00 69.0 °F 64.3 °F 30.00 in WSW 2.8 mph 3.5 mph 85 % 0.00 in
09:05 69.4 °F 64.7 °F 30.00 in WSW 1.6 mph 3.5 mph 85 % 0.00 in
09:10 69.7 °F 65.0 °F 30.00 in SW 0.5 mph 2.0 mph 85 % 0.00 in
09:15 70.0 °F 64.9 °F 30.00 in SW 2.0 mph 3.5 mph 84 % 0.00 in
09:20 70.3 °F 64.9 °F 30.00 in ENE 0.7 mph 3.5 mph 83 % 0.00 in
09:25 70.6 °F 64.8 °F 30.00 in SW 2.8 mph 3.5 mph 82 % 0.00 in
09:30 70.8 °F 64.7 °F 29.99 in WSW 2.7 mph 5.8 mph 81 % 0.00 in
09:35 71.1 °F 64.3 °F 29.99 in SW 0.2 mph   79 % 0.00 in
09:40 71.3 °F 64.1 °F 29.99 in WSW 1.6 mph 3.0 mph 78 % 0.00 in
09:46 71.6 °F 64.7 °F 29.99 in WSW 1.0 mph 6.0 mph 79 % 0.00 in
09:51 71.8 °F 64.2 °F 29.99 in WSW 0.4 mph 2.3 mph 77 % 0.00 in
09:56 72.0 °F 64.4 °F 29.99 in WSW 1.0 mph 4.0 mph 77 % 0.00 in
10:01 72.2 °F 64.6 °F 29.99 in WSW 1.4 mph 3.5 mph 77 % 0.00 in
10:06 72.5 °F 64.1 °F 29.98 in West 0.4 mph 2.3 mph 75 % 0.00 in
10:11 72.9 °F 65.3 °F 29.98 in West 0.4 mph 2.3 mph 77 % 0.00 in
10:16 73.2 °F 64.8 °F 29.98 in SSW 0.6 mph 3.0 mph 75 % 0.00 in
10:21 73.6 °F 65.2 °F 29.98 in WNW 0.1 mph 1.2 mph 75 % 0.00 in
10:22 73.7 °F 65.3 °F 29.98 in WNW 0.1 mph 1.2 mph 75 % 0.00 in
10:27 74.1 °F 65.3 °F 29.98 in WNW 0.2 mph 2.3 mph 74 % 0.00 in
10:32 74.6 °F 66.5 °F 29.97 in West 0.2 mph 2.3 mph 76 % 0.00 in
10:37 75.4 °F 66.9 °F 29.97 in WSW 1.5 mph 3.5 mph 75 % 0.00 in
10:39 75.7 °F 66.8 °F 29.97 in WSW 0.1 mph 1.2 mph 74 % 0.00 in
10:44 76.2 °F 66.5 °F 29.97 in WSW 1.1 mph 6.0 mph 72 % 0.00 in
10:50 76.6 °F 66.5 °F 29.97 in SSW 1.8 mph 3.5 mph 71 % 0.00 in
10:55 76.9 °F 66.0 °F 29.97 in WSW 2.0 mph 6.0 mph 69 % 0.00 in
11:00 77.2 °F 66.7 °F 29.96 in WSW 0.1 mph 5.8 mph 70 % 0.00 in
11:05 77.4 °F 67.3 °F 29.96 in West 0.1 mph 3.5 mph 71 % 0.00 in
11:10 77.8 °F 68.0 °F 29.96 in Calm   2.3 mph 72 % 0.00 in
11:15 78.1 °F 67.9 °F 29.96 in WNW 1.2 mph 7.0 mph 71 % 0.00 in
11:20 78.3 °F 67.3 °F 29.96 in WNW 2.0 mph 3.5 mph 69 % 0.00 in
11:25 78.5 °F 67.5 °F 29.95 in WNW 1.1 mph 3.0 mph 69 % 0.00 in
11:30 78.7 °F 67.7 °F 29.95 in WNW 0.7 mph 2.3 mph 69 % 0.00 in
11:35 78.8 °F 67.8 °F 29.95 in North 0.9 mph 2.3 mph 69 % 0.00 in
11:40 78.8 °F 67.8 °F 29.95 in SSW 1.3 mph 2.3 mph 69 % 0.00 in
11:45 78.8 °F 67.8 °F 29.95 in West 0.9 mph 2.3 mph 69 % 0.00 in
11:50 78.6 °F 68.0 °F 29.95 in ENE 1.2 mph 5.8 mph 70 % 0.00 in
11:55 77.9 °F 67.3 °F 29.95 in ENE 2.4 mph 3.5 mph 70 % 0.00 in
12:00 77.4 °F 67.7 °F 29.94 in NNE 3.3 mph 5.0 mph 72 % 0.00 in
12:06 77.2 °F 67.5 °F 29.94 in NNE 3.0 mph 5.0 mph 72 % 0.00 in
12:11 77.2 °F 68.7 °F 29.94 in Calm   4.0 mph 75 % 0.00 in
12:16 77.5 °F 68.2 °F 29.94 in NE 1.0 mph 5.0 mph 73 % 0.00 in
12:21 78.1 °F 69.9 °F 29.94 in Calm     76 % 0.00 in
12:26 78.6 °F 69.2 °F 29.94 in NE 1.0 mph 2.0 mph 73 % 0.00 in
12:31 79.0 °F 69.2 °F 29.93 in NNE 1.0 mph 5.0 mph 72 % 0.00 in
12:36 79.1 °F 68.9 °F 29.93 in North 0.2 mph 2.0 mph 71 % 0.00 in
12:41 79.1 °F 68.9 °F 29.93 in Calm   4.0 mph 71 % 0.00 in
12:46 79.1 °F 68.9 °F 29.93 in North 3.0 mph 5.0 mph 71 % 0.00 in
12:51 78.8 °F 68.2 °F 29.93 in NNE 3.0 mph 6.0 mph 70 % 0.00 in
12:56 78.4 °F 67.8 °F 29.93 in NNE 1.0 mph 4.0 mph 70 % 0.00 in
13:01 77.8 °F 67.6 °F 29.92 in NNE 2.4 mph 3.5 mph 71 % 0.00 in
13:06 77.3 °F 67.2 °F 29.92 in East 1.2 mph 5.8 mph 71 % 0.00 in
13:11 76.7 °F 67.0 °F 29.92 in ENE 1.4 mph 3.5 mph 72 % 0.00 in
13:16 76.4 °F 67.5 °F 29.92 in Calm   1.2 mph 74 % 0.00 in
13:21 76.0 °F 66.7 °F 29.92 in ENE 1.2 mph 1.2 mph 73 % 0.00 in
13:26 76.1 °F 68.4 °F 29.92 in ENE 0.1 mph 1.0 mph 77 % 0.00 in
13:31 76.7 °F 69.3 °F 29.92 in Calm   2.3 mph 78 % 0.00 in
13:36 76.9 °F 67.6 °F 29.91 in Calm   1.2 mph 73 % 0.00 in
13:42 77.2 °F 68.7 °F 29.91 in Calm   2.3 mph 75 % 0.00 in
13:47 77.4 °F 68.5 °F 29.91 in NE 1.9 mph 4.6 mph 74 % 0.00 in
13:52 77.6 °F 68.3 °F 29.91 in NE 0.8 mph 2.3 mph 73 % 0.00 in
13:57 77.9 °F 68.5 °F 29.90 in NE 0.8 mph 3.5 mph 73 % 0.00 in
14:02 78.1 °F 68.7 °F 29.90 in NE 1.6 mph 3.5 mph 73 % 0.00 in
14:07 78.4 °F 69.8 °F 29.89 in NE 1.1 mph 3.5 mph 75 % 0.00 in
14:12 78.5 °F 69.5 °F 29.89 in North 0.5 mph 2.3 mph 74 % 0.00 in
14:17 78.5 °F 68.7 °F 29.89 in North 0.9 mph 2.3 mph 72 % 0.00 in
14:22 78.2 °F 68.4 °F 29.89 in NE 0.8 mph 3.5 mph 72 % 0.00 in
14:27 77.9 °F 68.1 °F 29.89 in North 1.5 mph 3.5 mph 72 % 0.00 in
14:32 77.6 °F 68.3 °F 29.89 in Calm   1.2 mph 73 % 0.00 in
14:37 77.2 °F 67.9 °F 29.89 in Calm   1.2 mph 73 % 0.00 in
14:42 76.9 °F 68.8 °F 29.89 in Calm   1.2 mph 76 % 0.00 in
14:48 76.8 °F 69.0 °F 29.89 in Calm   1.2 mph 77 % 0.00 in
14:53 76.6 °F 69.6 °F 29.89 in SW 1.0 mph 4.0 mph 79 % 0.00 in
14:58 76.5 °F 69.5 °F 29.89 in West 0.2 mph 1.2 mph 79 % 0.00 in
15:03 76.4 °F 69.4 °F 29.89 in Calm     79 % 0.00 in
15:08 76.3 °F 69.7 °F 29.88 in WNW 0.5 mph 1.2 mph 80 % 0.00 in
15:13 76.2 °F 69.6 °F 29.88 in Calm   1.2 mph 80 % 0.00 in
15:18 76.1 °F 69.5 °F 29.89 in SW 0.4 mph 2.3 mph 80 % 0.00 in
15:23 76.1 °F 69.5 °F 29.89 in SW 0.4 mph 1.2 mph 80 % 0.00 in
15:29 76.0 °F 69.4 °F 29.89 in SSW 0.6 mph 1.2 mph 80 % 0.00 in
15:34 76.0 °F 69.4 °F 29.88 in Calm   1.2 mph 80 % 0.00 in
15:39 75.8 °F 68.8 °F 29.89 in SE 0.7 mph 3.5 mph 79 % 0.00 in
15:44 75.7 °F 68.7 °F 29.89 in South 0.3 mph 1.2 mph 79 % 0.00 in
15:49 75.5 °F 68.9 °F 29.89 in SE 0.8 mph 3.5 mph 80 % 0.00 in
15:54 75.2 °F 68.2 °F 29.89 in Calm   1.2 mph 79 % 0.00 in
15:59 74.9 °F 68.3 °F 29.89 in SE 1.3 mph 4.6 mph 80 % 0.00 in
16:04 74.8 °F 68.6 °F 29.88 in SE 0.3 mph 3.5 mph 81 % 0.00 in
16:09 74.8 °F 68.6 °F 29.88 in SSE 0.5 mph 2.3 mph 81 % 0.00 in
16:14 74.8 °F 68.9 °F 29.88 in SSW 2.1 mph 5.8 mph 82 % 0.00 in
16:19 74.8 °F 68.6 °F 29.88 in South 0.1 mph 1.2 mph 81 % 0.00 in
16:24 74.7 °F 68.5 °F 29.88 in South 1.3 mph 3.5 mph 81 % 0.00 in
16:25 74.7 °F 68.5 °F 29.88 in SSW 1.4 mph 3.5 mph 81 % 0.00 in
16:30 74.7 °F 68.8 °F 29.88 in WSW 1.6 mph 3.5 mph 82 % 0.00 in
16:35 74.6 °F 68.7 °F 29.88 in Calm   1.2 mph 82 % 0.00 in
16:40 74.6 °F 69.1 °F 29.88 in Calm     83 % 0.00 in
16:45 74.6 °F 69.4 °F 29.88 in Calm   1.2 mph 84 % 0.00 in
16:50 74.6 °F 69.8 °F 29.87 in SSW 0.3 mph 1.2 mph 85 % 0.00 in
16:55 74.4 °F 69.6 °F 29.87 in SSW 0.4 mph 1.2 mph 85 % 0.00 in
17:00 74.4 °F 69.6 °F 29.87 in SSW 0.3 mph 2.3 mph 85 % 0.00 in
17:05 74.4 °F 69.6 °F 29.87 in Calm     85 % 0.00 in
17:10 74.4 °F 69.6 °F 29.87 in South 0.1 mph 1.2 mph 85 % 0.00 in
17:15 74.4 °F 69.6 °F 29.87 in Calm   1.0 mph 85 % 0.00 in
17:20 74.4 °F 69.6 °F 29.87 in Calm     85 % 0.00 in
17:25 74.4 °F 69.6 °F 29.86 in Calm   1.2 mph 85 % 0.00 in
17:26 74.4 °F 69.6 °F 29.86 in SE 0.3 mph 2.3 mph 85 % 0.00 in
17:31 74.4 °F 69.6 °F 29.86 in SW 0.6 mph 3.5 mph 85 % 0.00 in
17:36 74.4 °F 69.6 °F 29.86 in SE 0.6 mph 2.3 mph 85 % 0.00 in
17:41 74.4 °F 69.6 °F 29.86 in SE 2.2 mph 4.6 mph 85 % 0.00 in
17:46 74.4 °F 69.6 °F 29.86 in SE 0.1 mph 1.2 mph 85 % 0.00 in
17:51 74.4 °F 69.6 °F 29.86 in SW 1.6 mph 3.5 mph 85 % 0.00 in
17:56 74.4 °F 69.6 °F 29.86 in Calm     85 % 0.00 in
18:01 74.4 °F 69.6 °F 29.86 in SSW 0.8 mph 3.5 mph 85 % 0.00 in
18:06 74.4 °F 69.6 °F 29.86 in South 0.4 mph 1.2 mph 85 % 0.00 in
18:11 74.4 °F 69.6 °F 29.86 in SE 0.5 mph 3.5 mph 85 % 0.00 in
18:16 74.3 °F 69.5 °F 29.86 in WSW 0.8 mph 3.5 mph 85 % 0.00 in
18:21 74.4 °F 69.6 °F 29.85 in Calm   1.2 mph 85 % 0.00 in
18:26 74.3 °F 69.5 °F 29.85 in SW 0.1 mph 1.2 mph 85 % 0.00 in
18:31 74.4 °F 69.6 °F 29.85 in South 0.3 mph 2.3 mph 85 % 0.00 in
18:36 74.3 °F 69.5 °F 29.85 in SSE 1.3 mph 6.9 mph 85 % 0.00 in
18:42 74.2 °F 69.4 °F 29.85 in SSE 0.5 mph 3.5 mph 85 % 0.00 in
18:47 74.2 °F 69.4 °F 29.85 in SSE 1.0 mph 3.5 mph 85 % 0.00 in
18:52 74.2 °F 69.7 °F 29.85 in Calm   1.2 mph 86 % 0.00 in
18:57 74.1 °F 69.6 °F 29.85 in South 0.7 mph 2.3 mph 86 % 0.00 in
19:02 74.1 °F 69.6 °F 29.85 in SE 0.6 mph 6.0 mph 86 % 0.00 in
19:07 74.2 °F 69.7 °F 29.85 in SE 0.4 mph 3.5 mph 86 % 0.00 in
19:12 74.2 °F 70.1 °F 29.85 in SSW 0.3 mph 2.3 mph 87 % 0.00 in
19:17 74.2 °F 70.1 °F 29.85 in SSW 0.5 mph 2.3 mph 87 % 0.00 in
19:22 74.2 °F 70.1 °F 29.85 in SSE 0.6 mph 2.3 mph 87 % 0.00 in
19:27 74.2 °F 70.1 °F 29.85 in SSE 0.2 mph 1.2 mph 87 % 0.00 in
19:32 74.2 °F 70.1 °F 29.85 in SE 0.5 mph 2.3 mph 87 % 0.00 in
19:37 74.2 °F 70.1 °F 29.85 in Calm   3.5 mph 87 % 0.00 in
19:42 74.1 °F 70.0 °F 29.85 in SE 1.0 mph 1.2 mph 87 % 0.00 in
19:47 74.0 °F 69.9 °F 29.84 in WSW 0.9 mph 1.2 mph 87 % 0.00 in
19:52 74.0 °F 70.2 °F 29.84 in WSW 0.5 mph 1.2 mph 88 % 0.00 in
19:57 73.9 °F 69.8 °F 29.84 in WSW 0.1 mph 2.3 mph 87 % 0.00 in
20:00 73.9 °F 69.8 °F 29.84 in WSW 1.3 mph 2.3 mph 87 % 0.00 in
20:05 73.8 °F 70.0 °F 29.84 in SE 0.6 mph 1.2 mph 88 % 0.00 in
20:10 73.7 °F 69.9 °F 29.84 in SE 0.1 mph 1.2 mph 88 % 0.00 in
20:15 73.6 °F 69.8 °F 29.83 in SE 1.1 mph 3.5 mph 88 % 0.00 in
20:20 73.5 °F 70.1 °F 29.84 in South 0.5 mph 2.3 mph 89 % 0.00 in
20:25 73.4 °F 70.0 °F 29.83 in South 0.4 mph 2.0 mph 89 % 0.00 in
20:30 73.4 °F 70.0 °F 29.83 in South 0.3 mph 2.0 mph 89 % 0.00 in
20:35 73.3 °F 69.9 °F 29.84 in SW 1.9 mph 4.6 mph 89 % 0.00 in
20:40 73.3 °F 69.9 °F 29.83 in SW 0.9 mph 2.3 mph 89 % 0.00 in
20:45 73.2 °F 69.8 °F 29.83 in SSW 0.2 mph 1.2 mph 89 % 0.00 in
20:50 73.1 °F 69.7 °F 29.83 in SSW 1.0 mph 3.5 mph 89 % 0.00 in
20:55 73.1 °F 70.0 °F 29.83 in SSW 0.5 mph 2.0 mph 90 % 0.00 in
21:00 73.0 °F 69.9 °F 29.84 in SSW 0.6 mph 2.3 mph 90 % 0.00 in
21:05 73.0 °F 69.9 °F 29.83 in SE 0.6 mph 2.3 mph 90 % 0.00 in
21:10 73.0 °F 69.9 °F 29.84 in SSE 0.2 mph 1.2 mph 90 % 0.00 in
21:15 72.9 °F 70.1 °F 29.84 in SSE 0.2 mph 1.2 mph 91 % 0.00 in
21:20 72.9 °F 70.1 °F 29.84 in Calm   1.2 mph 91 % 0.00 in
21:25 72.9 °F 70.1 °F 29.84 in SSE 0.6 mph 1.2 mph 91 % 0.00 in
21:30 72.8 °F 70.0 °F 29.84 in WSW 0.3 mph 2.3 mph 91 % 0.00 in
21:35 72.8 °F 70.0 °F 29.84 in SE 0.3 mph 2.3 mph 91 % 0.00 in
21:41 72.8 °F 70.0 °F 29.84 in Calm   5.0 mph 91 % 0.00 in
21:46 72.7 °F 69.9 °F 29.84 in South 1.0 mph 2.3 mph 91 % 0.00 in
21:51 72.7 °F 69.9 °F 29.84 in SSW 1.0 mph 4.0 mph 91 % 0.00 in
21:56 72.7 °F 69.9 °F 29.84 in SW 1.0 mph 3.0 mph 91 % 0.00 in
22:01 72.7 °F 69.9 °F 29.84 in WSW 0.6 mph 1.2 mph 91 % 0.00 in
22:06 72.7 °F 69.9 °F 29.83 in Calm     91 % 0.00 in
22:11 72.7 °F 69.9 °F 29.83 in Calm     91 % 0.00 in
22:16 72.7 °F 69.9 °F 29.83 in SSE 0.7 mph 2.3 mph 91 % 0.00 in
22:21 72.7 °F 70.2 °F 29.83 in Calm     92 % 0.00 in
22:26 72.7 °F 70.2 °F 29.83 in WNW 0.1 mph 1.2 mph 92 % 0.00 in
22:31 72.7 °F 70.2 °F 29.83 in West 0.9 mph 3.5 mph 92 % 0.00 in
22:36 72.7 °F 70.2 °F 29.83 in SE 0.7 mph 2.3 mph 92 % 0.00 in
22:41 72.7 °F 69.9 °F 29.82 in South 0.5 mph 3.5 mph 91 % 0.00 in
22:46 72.7 °F 69.9 °F 29.83 in SSW 2.1 mph 5.8 mph 91 % 0.00 in
22:51 72.7 °F 70.2 °F 29.82 in WSW 1.4 mph 6.9 mph 92 % 0.00 in
22:56 72.7 °F 70.2 °F 29.82 in Calm   2.3 mph 92 % 0.00 in
23:01 72.7 °F 70.2 °F 29.83 in SW 1.0 mph 4.0 mph 92 % 0.00 in
23:06 72.6 °F 70.1 °F 29.82 in SSW 1.6 mph 3.5 mph 92 % 0.00 in
23:11 72.6 °F 70.1 °F 29.82 in WSW 2.3 mph 3.5 mph 92 % 0.00 in
23:16 72.6 °F 70.1 °F 29.82 in SW 1.0 mph 2.3 mph 92 % 0.00 in
23:21 72.6 °F 70.1 °F 29.82 in SSW 1.6 mph 3.5 mph 92 % 0.00 in
23:26 72.6 °F 70.1 °F 29.82 in SSW 0.8 mph 3.5 mph 92 % 0.00 in
23:31 72.6 °F 70.1 °F 29.82 in SSW 1.6 mph 2.3 mph 92 % 0.00 in
23:36 72.6 °F 70.1 °F 29.82 in SW 0.8 mph 4.0 mph 92 % 0.00 in
23:46 72.6 °F 70.1 °F 29.82 in WSW 2.0 mph 3.5 mph 92 % 0.00 in
23:52 72.6 °F 70.1 °F 29.82 in SW 0.2 mph 3.5 mph 92 % 0.00 in
23:56 72.6 °F 70.1 °F 29.82 in SSW 0.2 mph 1.2 mph 92 % 0.00 in
Crab Meadow Weather
Compliments of Weather Underground - 3 mb

Script developed by  Jim McMurry - jmcmurry@mwt.net Adapted for the template by  Wim van der Kuil - Leuven-Template.eu

Weather Terms: Outlook - A hazardous weather outlook is issued daily to indicate that a hazardous weather or hydrologic event may occur in the next several days. The outlook will include information about potential severe thunderstorms , heavy rain or flooding, winter weather, extremes of heat or cold, etc., that may develop over the next 7 days with an emphasis on the first 24 hours of the forecast. It is intended to provide information to those who need considerable lead time to prepare for the event.